Latest Weather Observations for Banana Bank

IDQ60901

Issued at 7:01 pm EST Saturday 16 December 2017 (issued every 10 minutes, with the page automatically refreshed every 10 minutes)

About weather observations | Map of Brisbane area stations | Latest observations for Brisbane area | Other Formats
Station Details ID: 040925 Name: BANANA BANK NORTH BEACON Lat: -27.53 Lon: 153.33 Height: 7.0 m
Data from the previous 72 hours. | See also: Recent months for locations in Queensland
Date/Time
EST
Temp
°C
App
Temp
°C
Dew
Point
°C
Rel
Hum
%
Delta-T
°C
Wind Press
QNH
hPa
Press
MSL
hPa
Rain since
9am
mm
Dir  Spd
km/h
Gust
km/h
Spd
kts
Gust
kts
16/07:00pm - - - - - ENE 19 24 10 13 - - -
16/06:30pm - - - - - NE 20 24 11 13 - - -
16/06:00pm - - - - - NE 20 24 11 13 - - -
16/05:30pm - - - - - NE 20 26 11 14 - - -
16/05:00pm - - - - - NE 22 28 12 15 - - -
16/04:30pm - - - - - NE 22 28 12 15 - - -
16/04:00pm - - - - - NE 20 26 11 14 - - -
16/03:30pm - - - - - NNE 20 28 11 15 - - -
16/03:00pm - - - - - NNE 20 28 11 15 - - -
16/02:30pm - - - - - NNE 19 30 10 16 - - -
16/02:00pm - - - - - NNE 24 30 13 16 - - -
16/01:30pm - - - - - NNE 22 28 12 15 - - -
16/01:00pm - - - - - N 22 28 12 15 - - -
16/12:30pm - - - - - N 20 26 11 14 - - -
16/12:00pm - - - - - N 22 28 12 15 - - -
16/11:30am - - - - - N 20 28 11 15 - - -
16/11:00am - - - - - N 20 24 11 13 - - -
16/10:30am - - - - - N 17 22 9 12 - - -
16/10:00am - - - - - N 19 24 10 13 - - -
16/09:30am - - - - - N 17 22 9 12 - - -
16/09:00am - - - - - NNE 7 13 4 7 - - -
16/08:30am - - - - - NE 13 17 7 9 - - -
16/08:00am - - - - - NE 11 15 6 8 - - -
16/07:30am - - - - - NE 17 19 9 10 - - -
16/07:00am - - - - - NE 19 22 10 12 - - -
16/06:30am - - - - - NE 19 20 10 11 - - -
16/06:00am - - - - - ENE 17 20 9 11 - - -
16/05:30am - - - - - NE 15 19 8 10 - - -
16/05:00am - - - - - ENE 15 17 8 9 - - -
16/04:30am - - - - - NE 13 17 7 9 - - -
16/04:00am - - - - - ENE 13 17 7 9 - - -
16/03:30am - - - - - ENE 15 19 8 10 - - -
16/03:00am - - - - - ENE 17 20 9 11 - - -
16/02:30am - - - - - ENE 19 22 10 12 - - -
16/02:00am - - - - - ENE 13 17 7 9 - - -
16/01:30am - - - - - ENE 13 19 7 10 - - -
16/01:00am - - - - - ENE 11 13 6 7 - - -
16/12:30am - - - - - NE 15 19 8 10 - - -
16/12:00am - - - - - ENE 15 17 8 9 - - -
 
Date/Time
EST
Temp
°C
App
Temp
°C
Dew
Point
°C
Rel
Hum
%
Delta-T
°C
Wind Press
QNH
hPa
Press
MSL
hPa
Rain since
9am
mm
Dir  Spd
km/h
Gust
km/h
Spd
kts
Gust
kts
15/11:30pm - - - - - ENE 17 19 9 10 - - -
15/11:00pm - - - - - ENE 17 19 9 10 - - -
15/10:30pm - - - - - NE 19 22 10 12 - - -
15/10:00pm - - - - - NE 20 22 11 12 - - -
15/09:30pm - - - - - NE 22 26 12 14 - - -
15/09:00pm - - - - - NE 20 24 11 13 - - -
15/08:30pm - - - - - NE 20 24 11 13 - - -
15/08:00pm - - - - - NE 22 24 12 13 - - -
15/07:30pm - - - - - NE 22 28 12 15 - - -
15/07:00pm - - - - - NE 24 28 13 15 - - -
15/06:30pm - - - - - NE 24 30 13 16 - - -
15/06:00pm - - - - - NE 24 28 13 15 - - -
15/05:30pm - - - - - NNE 24 28 13 15 - - -
15/05:00pm - - - - - NNE 22 26 12 14 - - -
15/04:30pm - - - - - NNE 22 26 12 14 - - -
15/04:00pm - - - - - NNE 24 28 13 15 - - -
15/03:30pm - - - - - NNE 22 26 12 14 - - -
15/03:00pm - - - - - NE 20 24 11 13 - - -
15/02:30pm - - - - - NE 22 28 12 15 - - -
15/02:00pm - - - - - NNE 20 24 11 13 - - -
15/01:30pm - - - - - NNE 19 22 10 12 - - -
15/01:00pm - - - - - N 19 22 10 12 - - -
15/12:30pm - - - - - N 19 22 10 12 - - -
15/12:00pm - - - - - N 19 20 10 11 - - -
15/11:30am - - - - - N 17 20 9 11 - - -
15/11:00am - - - - - N 17 20 9 11 - - -
15/10:30am - - - - - N 15 17 8 9 - - -
15/10:00am - - - - - N 13 17 7 9 - - -
15/09:30am - - - - - N 13 17 7 9 - - -
15/09:00am - - - - - N 13 15 7 8 - - -
15/08:30am - - - - - N 15 20 8 11 - - -
15/08:00am - - - - - NE 11 15 6 8 - - -
15/07:30am - - - - - NE 9 15 5 8 - - -
15/07:00am - - - - - NE 9 13 5 7 - - -
15/06:30am - - - - - ENE 7 9 4 5 - - -
15/06:00am - - - - - ENE 6 7 3 4 - - -
15/05:30am - - - - - NE 6 6 3 3 - - -
15/05:00am - - - - - ENE 7 7 4 4 - - -
15/04:30am - - - - - NE 7 9 4 5 - - -
15/04:00am - - - - - ENE 7 9 4 5 - - -
15/03:30am - - - - - NE 7 7 4 4 - - -
15/03:00am - - - - - NE 7 9 4 5 - - -
15/02:30am - - - - - NNE 9 9 5 5 - - -
15/02:00am - - - - - NNE 9 11 5 6 - - -
15/01:30am - - - - - NNE 9 11 5 6 - - -
15/01:00am - - - - - NNE 9 11 5 6 - - -
15/12:30am - - - - - NNE 11 15 6 8 - - -
15/12:00am - - - - - NE 11 13 6 7 - - -
 
Date/Time
EST
Temp
°C
App
Temp
°C
Dew
Point
°C
Rel
Hum
%
Delta-T
°C
Wind Press
QNH
hPa
Press
MSL
hPa
Rain since
9am
mm
Dir  Spd
km/h
Gust
km/h
Spd
kts
Gust
kts
14/11:30pm - - - - - NNE 13 15 7 8 - - -
14/11:00pm - - - - - NNE 9 13 5 7 - - -
14/10:30pm - - - - - NNE 11 13 6 7 - - -
14/10:00pm - - - - - NNE 11 15 6 8 - - -
14/09:30pm - - - - - NNE 13 15 7 8 - - -
14/09:00pm - - - - - NE 15 19 8 10 - - -
14/08:30pm - - - - - NE 17 20 9 11 - - -
14/08:00pm - - - - - NNE 17 20 9 11 - - -
14/07:30pm - - - - - NE 17 19 9 10 - - -
14/07:00pm - - - - - NE 19 22 10 12 - - -
14/06:30pm - - - - - NE 19 22 10 12 - - -
14/06:00pm - - - - - NE 19 22 10 12 - - -
14/05:30pm - - - - - NNE 19 24 10 13 - - -
14/05:00pm - - - - - NNE 17 22 9 12 - - -
14/04:30pm - - - - - N 17 24 9 13 - - -
14/04:00pm - - - - - NNE 15 19 8 10 - - -
14/03:30pm - - - - - NE 13 19 7 10 - - -
14/03:00pm - - - - - NE 13 20 7 11 - - -
14/02:30pm - - - - - NE 7 11 4 6 - - -
14/02:00pm - - - - - ENE 11 20 6 11 - - -
14/01:30pm - - - - - N 17 20 9 11 - - -
14/01:00pm - - - - - NNW 7 11 4 6 - - -
14/12:30pm - - - - - NNW 9 11 5 6 - - -
14/12:00pm - - - - - NNW 7 11 4 6 - - -
14/11:30am - - - - - NW 7 9 4 5 - - -
14/11:00am - - - - - W 4 6 2 3 - - -
14/10:30am - - - - - WSW 2 4 1 2 - - -
14/10:00am - - - - - WSW 2 6 1 3 - - -
14/09:30am - - - - - SSW 4 7 2 4 - - -
14/09:00am - - - - - SSW 6 9 3 5 - - -
14/08:30am - - - - - S 6 7 3 4 - - -
14/08:00am - - - - - S 6 9 3 5 - - -
14/07:30am - - - - - S 7 9 4 5 - - -
14/07:00am - - - - - S 9 11 5 6 - - -
14/06:30am - - - - - SSW 11 13 6 7 - - -
14/06:00am - - - - - SSW 13 15 7 8 - - -
14/05:30am - - - - - SSW 13 15 7 8 - - -
14/05:00am - - - - - SSW 11 13 6 7 - - -
14/04:30am - - - - - SSW 7 11 4 6 - - -
14/04:00am - - - - - SSW 7 9 4 5 - - -
14/03:30am - - - - - SW 6 9 3 5 - - -
14/03:00am - - - - - E 2 4 1 2 - - -
14/02:30am - - - - - E 4 6 2 3 - - -
14/02:00am - - - - - E 6 6 3 3 - - -
14/01:30am - - - - - E 6 7 3 4 - - -
14/01:00am - - - - - E 7 9 4 5 - - -
14/12:30am - - - - - E 9 11 5 6 - - -
14/12:00am - - - - - E 9 13 5 7 - - -
 
Date/Time
EST
Temp
°C
App
Temp
°C
Dew
Point
°C
Rel
Hum
%
Delta-T
°C
Wind Press
QNH
hPa
Press
MSL
hPa
Rain since
9am
mm
Dir  Spd
km/h
Gust
km/h
Spd
kts
Gust
kts
13/11:30pm - - - - - E 11 13 6 7 - - -
13/11:00pm - - - - - ENE 11 13 6 7 - - -
13/10:30pm - - - - - E 13 17 7 9 - - -
13/10:00pm - - - - - E 13 15 7 8 - - -
13/09:30pm - - - - - E 13 17 7 9 - - -
13/09:00pm - - - - - E 11 15 6 8 - - -
13/08:30pm - - - - - E 11 15 6 8 - - -
13/08:00pm - - - - - E 11 15 6 8 - - -
13/07:30pm - - - - - E 17 20 9 11 - - -

Latest Capital City Observations: Canberra | Sydney | Melbourne | Brisbane | Adelaide | Perth | Hobart | Darwin

Other Formats:

Comma delimited format used in spreadsheet applications
http://www.bom.gov.au/fwo/IDQ60901/IDQ60901.94591.axf

JavaScript Object Notation format (JSON) in row-major order
http://www.bom.gov.au/fwo/IDQ60901/IDQ60901.94591.json